createdAt,value
2018-08-13T00:00:20.364Z,4.17
2018-08-13T00:02:24.688Z,4.03
2018-08-13T00:04:28.935Z,4.40
2018-08-13T00:06:33.145Z,4.63
2018-08-13T00:08:37.342Z,5.53
2018-08-13T00:10:41.775Z,5.53
2018-08-13T00:12:45.957Z,3.50
2018-08-13T00:14:50.262Z,3.80
2018-08-13T00:16:54.458Z,4.60
2018-08-13T00:18:58.726Z,10.87
2018-08-13T00:21:02.972Z,5.80
2018-08-13T00:23:07.938Z,7.60
2018-08-13T00:25:12.183Z,4.70
2018-08-13T00:27:16.458Z,5.90
2018-08-13T00:29:20.654Z,4.60
2018-08-13T00:31:24.811Z,4.43
2018-08-13T00:33:29.011Z,4.23
2018-08-13T00:35:33.272Z,4.73
2018-08-13T00:37:37.562Z,5.77
2018-08-13T00:39:41.753Z,5.50
2018-08-13T00:41:45.953Z,5.00
2018-08-13T00:43:50.236Z,5.87
2018-08-13T00:45:54.438Z,6.40
2018-08-13T00:47:58.664Z,4.70
2018-08-13T00:50:02.927Z,4.40
2018-08-13T01:14:23.001Z,8.27
2018-08-13T01:16:26.949Z,5.90
2018-08-13T01:18:30.986Z,6.60
2018-08-13T01:20:35.106Z,5.97
2018-08-13T01:22:39.301Z,5.67
2018-08-13T01:24:43.549Z,5.37
2018-08-13T01:26:48.200Z,5.40
2018-08-13T01:28:52.526Z,5.80
2018-08-13T01:30:57.056Z,6.33
2018-08-13T01:33:01.402Z,5.87
2018-08-13T01:35:05.951Z,5.97
2018-08-13T01:37:10.313Z,5.37
2018-08-13T01:39:14.950Z,8.43
2018-08-13T01:41:19.548Z,5.80
2018-08-13T01:43:24.168Z,5.90
2018-08-13T01:45:28.930Z,6.23
2018-08-13T01:47:34.085Z,6.03
2018-08-13T01:49:38.592Z,6.87
2018-08-13T01:51:43.314Z,7.30
2018-08-13T01:53:47.641Z,10.10
2018-08-13T01:55:52.389Z,6.90
2018-08-13T01:57:57.221Z,7.27
2018-08-13T02:00:02.544Z,6.23
2018-08-13T02:02:07.552Z,11.87
2018-08-13T02:04:12.081Z,5.90
2018-08-13T02:06:17.574Z,8.57
2018-08-13T02:08:23.273Z,6.80
2018-08-13T02:10:27.855Z,5.43
2018-08-13T02:12:32.576Z,6.30
2018-08-13T02:14:37.430Z,5.60
2018-08-13T02:16:43.151Z,5.97
2018-08-13T02:18:48.550Z,7.43
2018-08-13T02:20:52.763Z,6.20
2018-08-13T02:22:57.011Z,6.17
2018-08-13T02:25:01.287Z,7.37
2018-08-13T02:27:05.654Z,8.87
2018-08-13T02:29:10.027Z,6.77
2018-08-13T02:31:14.570Z,6.00
2018-08-13T02:33:18.754Z,7.17
2018-08-13T02:35:22.995Z,6.43
2018-08-13T02:37:27.246Z,7.00
2018-08-13T02:39:31.502Z,6.10
2018-08-13T02:41:35.840Z,8.93
2018-08-13T02:43:40.415Z,6.93
2018-08-13T02:45:44.632Z,6.70
2018-08-13T02:47:48.787Z,7.07
2018-08-13T02:49:53.023Z,6.67
2018-08-13T02:51:57.366Z,8.80
2018-08-13T02:54:01.792Z,5.63
2018-08-13T02:56:06.198Z,6.33
2018-08-13T02:58:10.417Z,6.67
2018-08-13T03:00:14.770Z,6.53
2018-08-13T03:02:19.015Z,5.87
2018-08-13T03:04:23.280Z,8.53
2018-08-13T03:06:27.586Z,7.53
2018-08-13T03:08:31.815Z,6.83
2018-08-13T03:10:36.021Z,6.20
2018-08-13T03:12:40.365Z,6.17
2018-08-13T03:14:44.587Z,6.03
2018-08-13T03:16:48.909Z,6.07
2018-08-13T03:18:53.205Z,6.23
2018-08-13T03:20:57.536Z,6.00
2018-08-13T03:23:01.797Z,7.07
2018-08-13T03:25:08.512Z,5.87
2018-08-13T03:27:12.788Z,5.30
2018-08-13T03:29:17.053Z,8.57
2018-08-13T03:31:21.366Z,7.03
2018-08-13T03:33:25.609Z,5.87
2018-08-13T03:35:29.786Z,6.10
2018-08-13T03:37:34.099Z,6.03
2018-08-13T03:39:38.377Z,6.67
2018-08-13T03:41:43.463Z,6.20
2018-08-13T03:43:47.804Z,5.20
2018-08-13T03:45:52.077Z,6.47
2018-08-13T03:47:56.369Z,6.00
2018-08-13T03:50:00.614Z,6.43
2018-08-13T03:52:06.020Z,6.00
2018-08-13T03:54:10.300Z,14.03
2018-08-13T03:56:14.542Z,6.30
2018-08-13T03:58:18.812Z,5.77
2018-08-13T04:00:23.422Z,7.67
2018-08-13T04:02:27.639Z,5.77
2018-08-13T04:04:31.888Z,6.10
2018-08-13T04:06:36.134Z,6.57
2018-08-13T04:08:40.394Z,5.50
2018-08-13T04:10:45.011Z,6.03
2018-08-13T04:12:49.376Z,6.63
2018-08-13T04:14:53.606Z,6.83
2018-08-13T04:17:05.075Z,5.47
2018-08-13T04:19:10.133Z,5.17
2018-08-13T04:21:14.638Z,5.73
2018-08-13T04:23:19.250Z,6.17
2018-08-13T04:25:23.507Z,5.50
2018-08-13T04:27:27.802Z,5.23
2018-08-13T04:29:32.394Z,6.53
2018-08-13T04:31:36.593Z,6.30
2018-08-13T04:33:40.838Z,6.93
2018-08-13T04:35:45.043Z,6.17
2018-08-13T04:37:49.414Z,9.23
2018-08-13T04:39:53.648Z,6.23
2018-08-13T04:41:57.837Z,7.90
2018-08-13T04:44:02.103Z,5.20
2018-08-13T04:46:06.394Z,5.00
2018-08-13T04:48:10.660Z,6.73
2018-08-13T04:50:14.943Z,6.30
2018-08-13T04:52:19.184Z,7.30
2018-08-13T04:54:23.439Z,5.20
2018-08-13T04:56:27.741Z,5.57
2018-08-13T04:58:31.966Z,8.47
2018-08-13T05:00:36.216Z,4.77
2018-08-13T05:02:40.417Z,5.37
2018-08-13T05:04:44.706Z,5.40
2018-08-13T05:06:48.870Z,7.13
2018-08-13T05:08:53.505Z,4.53
2018-08-13T05:10:57.872Z,4.83
2018-08-13T05:13:02.073Z,4.43
2018-08-13T05:15:07.842Z,4.50
2018-08-13T05:17:12.031Z,5.17
2018-08-13T05:19:16.280Z,6.00
2018-08-13T05:21:20.480Z,5.40
2018-08-13T05:23:24.738Z,5.40
2018-08-13T05:25:28.957Z,6.47
2018-08-13T05:27:33.148Z,5.37
2018-08-13T05:29:37.418Z,6.43
2018-08-13T05:31:41.647Z,5.80
2018-08-13T05:33:45.960Z,5.97
2018-08-13T05:35:50.224Z,5.60
2018-08-13T05:37:54.518Z,6.33
2018-08-13T05:39:58.747Z,6.53
2018-08-13T05:42:02.976Z,6.53
2018-08-13T05:44:07.451Z,5.93
2018-08-13T05:46:11.644Z,5.07
2018-08-13T05:48:15.918Z,8.17
2018-08-13T05:50:20.490Z,7.40
2018-08-13T05:52:24.790Z,6.37
2018-08-13T05:54:29.058Z,7.00
2018-08-13T05:56:33.670Z,6.77
2018-08-13T05:58:37.961Z,9.07
2018-08-13T06:00:42.703Z,6.23
2018-08-13T06:02:47.132Z,6.00
2018-08-13T06:04:51.509Z,6.13
2018-08-13T06:06:56.011Z,6.00
2018-08-13T06:09:00.542Z,5.47
2018-08-13T06:11:05.009Z,5.93
2018-08-13T06:13:09.340Z,9.20
2018-08-13T06:15:14.629Z,7.07
2018-08-13T06:17:18.979Z,10.37
2018-08-13T06:19:23.325Z,7.67
2018-08-13T06:21:27.772Z,5.77
2018-08-13T06:23:32.097Z,7.27
2018-08-13T06:25:36.341Z,9.80
2018-08-13T06:27:40.668Z,6.40
2018-08-13T06:29:45.101Z,6.77
2018-08-13T06:31:49.655Z,6.37
2018-08-13T06:33:53.993Z,5.30
2018-08-13T06:35:58.363Z,8.80
2018-08-13T06:38:02.618Z,7.00
2018-08-13T06:40:07.425Z,11.17
2018-08-13T06:42:11.727Z,7.17
2018-08-13T06:44:16.076Z,8.07
2018-08-13T06:46:20.671Z,6.73
2018-08-13T06:48:24.922Z,8.63
2018-08-13T06:50:29.306Z,6.10
2018-08-13T06:52:33.534Z,4.80
2018-08-13T06:54:37.798Z,4.77
2018-08-13T06:56:41.923Z,6.27
2018-08-13T06:58:46.224Z,6.83
2018-08-13T07:00:50.489Z,6.17
2018-08-13T07:02:54.680Z,6.07
2018-08-13T07:04:58.989Z,8.27
2018-08-13T07:07:03.250Z,7.67
2018-08-13T07:09:09.888Z,7.73
2018-08-13T07:11:14.117Z,11.00
2018-08-13T07:13:18.429Z,7.17
2018-08-13T07:15:23.224Z,8.50
2018-08-13T07:17:27.570Z,10.70
2018-08-13T07:19:31.825Z,11.47
2018-08-13T07:21:36.066Z,9.33
2018-08-13T07:23:40.321Z,5.00
2018-08-13T07:25:44.597Z,5.77
2018-08-13T07:27:48.908Z,6.50
2018-08-13T07:29:53.177Z,6.67
2018-08-13T07:31:57.366Z,6.17
2018-08-13T07:34:01.681Z,6.77
2018-08-13T07:36:06.015Z,8.97
2018-08-13T07:38:10.361Z,8.10
2018-08-13T07:40:16.006Z,7.97
2018-08-13T07:42:21.360Z,8.03
2018-08-13T07:44:26.596Z,7.53
2018-08-13T07:46:31.803Z,7.60
2018-08-13T07:48:36.124Z,7.60
2018-08-13T07:50:40.313Z,5.67
2018-08-13T07:52:44.757Z,7.40
2018-08-13T07:54:48.985Z,4.43
2018-08-13T07:56:53.217Z,4.37
2018-08-13T07:58:57.625Z,4.57
2018-08-13T08:01:01.929Z,7.07
2018-08-13T08:03:06.296Z,4.60
2018-08-13T08:05:10.525Z,7.90
2018-08-13T08:07:14.669Z,6.33
2018-08-13T08:09:19.531Z,8.80
2018-08-13T08:11:23.751Z,7.77
2018-08-13T08:13:27.930Z,7.00
2018-08-13T08:15:32.281Z,6.37
2018-08-13T08:17:36.552Z,7.80
2018-08-13T08:19:40.933Z,6.73
2018-08-13T08:21:45.339Z,8.83
2018-08-13T08:23:49.585Z,3.87
2018-08-13T08:25:53.951Z,5.83
2018-08-13T08:27:58.247Z,5.60
2018-08-13T08:30:02.446Z,4.50
2018-08-13T08:32:06.687Z,6.73
2018-08-13T08:34:11.541Z,10.23
2018-08-13T08:36:15.769Z,7.93
2018-08-13T08:38:19.999Z,9.50
2018-08-13T08:40:24.261Z,6.60
2018-08-13T08:42:28.462Z,4.23
2018-08-13T08:44:32.814Z,4.40
2018-08-13T08:46:37.082Z,6.17
2018-08-13T08:48:41.406Z,5.33
2018-08-13T08:50:45.758Z,3.80
2018-08-13T08:52:50.072Z,4.17
2018-08-13T08:54:54.300Z,9.93
2018-08-13T08:56:58.514Z,6.07
2018-08-13T08:59:02.906Z,14.93
2018-08-13T09:01:07.231Z,8.30
2018-08-13T09:03:11.421Z,8.27
2018-08-13T09:05:16.227Z,7.33
2018-08-13T09:07:20.706Z,7.50
2018-08-13T09:09:25.362Z,5.33
2018-08-13T09:11:29.671Z,5.17
2018-08-13T09:13:33.877Z,7.43
2018-08-13T09:15:38.126Z,7.10
2018-08-13T09:17:53.182Z,9.33
2018-08-13T09:20:08.471Z,8.43
2018-08-13T09:22:23.561Z,7.10
2018-08-13T09:24:38.582Z,9.10
2018-08-13T09:27:56.193Z,4.43
2018-08-13T09:30:11.323Z,4.57
2018-08-13T09:32:30.788Z,4.10
2018-08-13T09:34:42.038Z,7.13
2018-08-13T09:36:46.408Z,6.13
2018-08-13T09:38:50.642Z,5.73
2018-08-13T09:40:54.874Z,4.53
2018-08-13T09:42:59.425Z,7.57
2018-08-13T09:45:03.729Z,5.77
2018-08-13T09:47:07.971Z,5.17
2018-08-13T09:49:12.226Z,6.30
2018-08-13T09:51:16.432Z,4.90
2018-08-13T09:53:20.659Z,8.23
2018-08-13T09:55:24.882Z,4.60
2018-08-13T09:57:29.473Z,5.10
2018-08-13T09:59:33.722Z,4.83
2018-08-13T10:01:37.943Z,6.23
2018-08-13T10:03:42.145Z,5.13
2018-08-13T10:05:46.549Z,6.73
2018-08-13T10:07:50.811Z,7.03
2018-08-13T10:09:55.065Z,7.93
2018-08-13T10:11:59.542Z,7.43
2018-08-13T10:14:03.999Z,4.57
2018-08-13T10:16:08.384Z,3.87
2018-08-13T10:18:12.812Z,5.20
2018-08-13T10:20:19.627Z,4.90
2018-08-13T10:22:23.893Z,6.50
2018-08-13T10:24:28.542Z,4.77
2018-08-13T10:26:32.792Z,6.17
2018-08-13T10:28:37.043Z,4.57
2018-08-13T10:30:41.284Z,6.13
2018-08-13T10:32:45.878Z,5.83
2018-08-13T10:34:50.086Z,5.50
2018-08-13T10:36:54.283Z,6.00
2018-08-13T10:38:58.561Z,5.63
2018-08-13T10:41:02.864Z,4.03
2018-08-13T10:43:07.198Z,6.50
2018-08-13T10:45:11.431Z,4.40
2018-08-13T10:47:15.678Z,4.73
2018-08-13T10:49:19.913Z,4.67
2018-08-13T10:51:24.185Z,4.07
2018-08-13T10:53:28.456Z,4.03
2018-08-13T10:55:32.611Z,5.67
2018-08-13T10:57:37.006Z,6.23
2018-08-13T10:59:41.174Z,4.93
2018-08-13T11:01:45.373Z,7.83
2018-08-13T11:03:49.838Z,6.33
2018-08-13T11:05:54.078Z,5.33
2018-08-13T11:07:58.353Z,7.13
2018-08-13T11:10:02.754Z,5.13
2018-08-13T11:12:06.989Z,6.87
2018-08-13T11:14:13.683Z,7.97
2018-08-13T11:16:18.117Z,6.43
2018-08-13T11:18:22.334Z,5.70
2018-08-13T11:20:26.565Z,5.27
2018-08-13T11:22:30.807Z,5.30
2018-08-13T11:24:35.059Z,5.60
2018-08-13T11:26:39.254Z,5.20
2018-08-13T11:28:43.523Z,7.40
2018-08-13T11:30:47.765Z,6.07
2018-08-13T11:32:52.008Z,4.67
2018-08-13T11:34:56.318Z,4.17
2018-08-13T11:37:00.579Z,6.67
2018-08-13T11:39:07.419Z,5.33
2018-08-13T11:41:11.678Z,6.03
2018-08-13T11:43:15.965Z,6.13
2018-08-13T11:45:20.331Z,7.80
2018-08-13T11:47:24.482Z,7.63
2018-08-13T11:49:28.679Z,5.57
2018-08-13T11:51:32.957Z,4.87
2018-08-13T11:53:37.173Z,6.47
2018-08-13T11:55:41.405Z,5.23
2018-08-13T11:57:46.002Z,3.80
2018-08-13T11:59:50.640Z,6.17
2018-08-13T12:01:54.882Z,5.93
2018-08-13T12:03:59.148Z,6.13
2018-08-13T12:06:03.463Z,7.27
2018-08-13T12:08:07.737Z,5.27
2018-08-13T12:10:12.778Z,3.00
2018-08-13T12:12:17.134Z,2.90
2018-08-13T12:14:21.333Z,5.07
2018-08-13T12:16:25.595Z,5.07
2018-08-13T12:18:29.912Z,3.73
2018-08-13T12:20:34.146Z,2.87
2018-08-13T12:22:38.514Z,3.33
2018-08-13T12:24:42.750Z,4.93
2018-08-13T12:26:47.059Z,5.27
2018-08-13T12:28:51.360Z,3.93
2018-08-13T12:30:55.650Z,2.70
2018-08-13T12:32:59.855Z,3.67
2018-08-13T12:35:04.210Z,2.87
2018-08-13T12:37:08.461Z,2.10
2018-08-13T12:39:13.291Z,2.53
2018-08-13T12:41:17.526Z,2.00
2018-08-13T12:43:21.803Z,2.37
2018-08-13T12:45:25.982Z,4.60
2018-08-13T12:47:30.243Z,2.47
2018-08-13T12:49:34.554Z,3.90
2018-08-13T12:51:38.647Z,2.67
2018-08-13T12:53:42.859Z,4.10
2018-08-13T12:55:47.083Z,2.70
2018-08-13T12:57:51.271Z,2.23
2018-08-13T12:59:55.518Z,2.70
2018-08-13T13:01:59.767Z,2.80
2018-08-13T13:04:04.005Z,3.80
2018-08-13T13:06:08.402Z,3.20
2018-08-13T13:08:12.644Z,1.60
2018-08-13T13:10:17.989Z,4.13
2018-08-13T13:12:22.242Z,2.17
2018-08-13T13:14:26.813Z,2.33
2018-08-13T13:16:31.134Z,2.43
2018-08-13T13:18:35.663Z,1.37
2018-08-13T13:20:40.087Z,3.27
2018-08-13T13:22:44.781Z,3.43
2018-08-13T13:24:49.042Z,3.30
2018-08-13T13:26:53.198Z,3.07
2018-08-13T13:28:57.884Z,2.53
2018-08-13T13:31:02.217Z,2.73
2018-08-13T13:33:06.759Z,2.33
2018-08-13T13:35:12.995Z,3.03
2018-08-13T13:37:17.822Z,4.00
2018-08-13T13:39:22.694Z,2.63
2018-08-13T13:41:27.102Z,3.73
2018-08-13T13:43:31.374Z,3.17
2018-08-13T13:45:35.767Z,3.47
2018-08-13T13:47:40.271Z,2.70
2018-08-13T13:49:44.606Z,5.70
2018-08-13T13:51:52.450Z,3.43
2018-08-13T13:53:56.702Z,3.17
2018-08-13T13:56:01.018Z,4.23
2018-08-13T13:58:05.313Z,8.27
2018-08-13T14:00:15.150Z,3.57
2018-08-13T14:02:19.378Z,4.27
2018-08-13T14:04:23.690Z,4.87
2018-08-13T14:06:28.144Z,4.10
2018-08-13T14:08:33.262Z,3.53
2018-08-13T14:10:37.492Z,3.30
2018-08-13T14:12:41.730Z,5.27
2018-08-13T14:14:45.943Z,3.30
2018-08-13T14:16:50.258Z,5.10
2018-08-13T14:18:54.510Z,4.60
2018-08-13T14:20:59.239Z,4.63
2018-08-13T14:23:03.589Z,5.63
2018-08-13T14:25:09.404Z,5.10
2018-08-13T14:27:13.702Z,4.67
2018-08-13T14:29:17.927Z,6.00
2018-08-13T14:31:22.125Z,5.80
2018-08-13T14:33:27.203Z,4.40
2018-08-13T14:35:32.109Z,5.97
2018-08-13T14:37:36.335Z,4.80
2018-08-13T14:39:40.643Z,5.73
2018-08-13T14:41:44.939Z,4.13
2018-08-13T14:43:49.235Z,4.57
2018-08-13T14:45:57.262Z,5.30
2018-08-13T14:48:02.471Z,7.87
2018-08-13T14:50:09.161Z,8.98
2018-08-13T14:52:13.398Z,8.03
2018-08-13T14:54:17.641Z,10.93
2018-08-13T14:56:21.844Z,11.60
2018-08-13T14:58:26.490Z,5.77
2018-08-13T15:00:34.411Z,7.07
2018-08-13T15:02:38.977Z,12.53
2018-08-13T15:04:43.145Z,6.43
2018-08-13T15:06:47.936Z,17.30
2018-08-13T15:08:53.191Z,8.03
2018-08-13T15:10:58.470Z,8.17
2018-08-13T15:13:02.913Z,4.20
2018-08-13T15:15:09.801Z,4.97
2018-08-13T15:17:14.724Z,3.10
2018-08-13T15:19:18.973Z,2.63
2018-08-13T15:21:23.192Z,4.37
2018-08-13T15:23:27.373Z,3.60
2018-08-13T15:25:31.635Z,4.23
2018-08-13T15:27:36.658Z,3.67
2018-08-13T15:29:40.770Z,3.97
2018-08-13T15:31:44.945Z,4.53
2018-08-13T15:33:49.416Z,6.63
2018-08-13T15:35:53.954Z,6.07
2018-08-13T15:37:58.130Z,6.23
2018-08-13T15:40:03.326Z,7.60
2018-08-13T15:42:07.697Z,5.57
2018-08-13T15:44:11.908Z,4.80
2018-08-13T15:46:16.135Z,5.50
2018-08-13T15:48:20.451Z,5.97
2018-08-13T15:50:24.768Z,6.50
2018-08-13T15:52:28.908Z,6.73
2018-08-13T15:54:33.162Z,6.57
2018-08-13T15:56:37.340Z,8.20
2018-08-13T15:58:41.541Z,7.93
2018-08-13T16:00:45.660Z,7.97
2018-08-13T16:02:50.971Z,9.50
2018-08-13T16:04:55.482Z,9.40
2018-08-13T16:06:59.729Z,7.30
2018-08-13T16:09:05.121Z,7.23
2018-08-13T16:11:09.662Z,10.63
2018-08-13T16:13:13.904Z,10.03
2018-08-13T16:15:18.333Z,6.30
2018-08-13T16:17:28.809Z,8.43
2018-08-13T16:19:39.324Z,8.50
2018-08-13T16:21:50.828Z,8.97
2018-08-13T16:24:00.288Z,10.03
2018-08-13T16:26:09.559Z,10.53
2018-08-13T16:28:13.943Z,14.90
2018-08-13T16:30:28.247Z,10.07
2018-08-13T16:32:32.485Z,10.47
2018-08-13T16:34:36.726Z,10.53
2018-08-13T16:36:40.977Z,9.70
2018-08-13T16:38:45.260Z,7.63
2018-08-13T16:40:49.496Z,7.13
2018-08-13T16:42:54.198Z,8.50
2018-08-13T16:44:58.398Z,9.57
2018-08-13T16:47:02.692Z,8.17
2018-08-13T16:49:07.073Z,8.00
2018-08-13T16:51:11.275Z,9.07
2018-08-13T16:53:15.558Z,9.43
2018-08-13T16:55:19.791Z,7.47
2018-08-13T16:57:23.988Z,9.13
2018-08-13T16:59:28.309Z,9.10
2018-08-13T17:01:32.590Z,10.27
2018-08-13T17:03:36.794Z,12.30
2018-08-13T17:05:40.981Z,11.60
2018-08-13T17:07:45.315Z,12.33
2018-08-13T17:09:49.555Z,11.63
2018-08-13T17:11:53.837Z,11.60
2018-08-13T17:13:58.029Z,13.17
2018-08-13T17:16:02.291Z,11.70
2018-08-13T17:18:06.809Z,12.87
2018-08-13T17:20:16.959Z,13.43
2018-08-13T17:22:21.308Z,12.93
2018-08-13T17:24:25.488Z,14.00
2018-08-13T17:26:29.692Z,14.37
2018-08-13T17:28:33.972Z,13.17
2018-08-13T17:30:38.334Z,16.80
2018-08-13T17:32:42.666Z,15.00
2018-08-13T17:34:47.047Z,14.30
2018-08-13T17:36:51.335Z,16.53
2018-08-13T17:38:55.701Z,15.93
2018-08-13T17:40:59.995Z,15.20
2018-08-13T17:43:04.543Z,15.80
2018-08-13T17:45:10.019Z,15.47
2018-08-13T17:47:14.294Z,15.50
2018-08-13T17:49:18.550Z,11.33
2018-08-13T17:51:22.820Z,15.80
2018-08-13T17:53:27.042Z,15.87
2018-08-13T17:55:31.691Z,14.73
2018-08-13T17:57:36.206Z,15.53
2018-08-13T17:59:40.487Z,11.90
2018-08-13T18:01:44.919Z,13.23
2018-08-13T18:03:49.222Z,15.40
2018-08-13T18:05:53.715Z,15.87
2018-08-13T18:07:58.551Z,16.70
2018-08-13T18:10:02.706Z,19.57
2018-08-13T18:12:06.923Z,18.57
2018-08-13T18:14:11.111Z,16.73
2018-08-13T18:16:15.454Z,14.30
2018-08-13T18:18:19.765Z,18.57
2018-08-13T18:20:24.195Z,18.50
2018-08-13T18:22:28.423Z,18.73
2018-08-13T18:24:32.635Z,18.50
2018-08-13T18:26:36.931Z,20.07
2018-08-13T18:28:41.211Z,16.67
2018-08-13T18:30:45.594Z,14.20
2018-08-13T18:32:50.006Z,19.50
2018-08-13T18:34:54.568Z,20.17
2018-08-13T18:36:58.791Z,21.93
2018-08-13T18:39:03.201Z,20.87
2018-08-13T18:41:07.513Z,21.57
2018-08-13T18:43:11.817Z,18.33
2018-08-13T18:45:16.434Z,19.43
2018-08-13T18:47:20.873Z,23.00
2018-08-13T18:49:25.083Z,20.40
2018-08-13T18:51:29.359Z,19.17
2018-08-13T18:53:33.638Z,19.30
2018-08-13T18:55:37.851Z,19.63
2018-08-13T18:57:42.108Z,18.90
2018-08-13T18:59:46.340Z,17.90
2018-08-13T19:01:50.660Z,14.20
2018-08-13T19:03:55.406Z,13.53
2018-08-13T19:05:59.848Z,9.10
2018-08-13T19:08:04.607Z,10.20
2018-08-13T19:10:11.296Z,8.93
2018-08-13T19:12:15.588Z,10.37
2018-08-13T19:14:19.869Z,10.40
2018-08-13T19:16:24.066Z,8.80
2018-08-13T19:18:28.374Z,10.07
2018-08-13T19:20:32.681Z,10.33
2018-08-13T19:22:36.894Z,9.60
2018-08-13T19:24:41.158Z,8.70
2018-08-13T19:26:45.542Z,12.40
2018-08-13T19:28:49.897Z,11.80
2018-08-13T19:30:54.073Z,12.53
2018-08-13T19:32:58.377Z,10.07
2018-08-13T19:35:02.551Z,12.57
2018-08-13T19:37:06.793Z,12.17
2018-08-13T19:39:13.253Z,16.77
2018-08-13T19:41:17.466Z,16.90
2018-08-13T19:43:21.767Z,16.97
2018-08-13T19:45:26.017Z,16.33
2018-08-13T19:47:30.435Z,17.50
2018-08-13T19:49:34.734Z,15.03
2018-08-13T19:51:39.038Z,16.40
2018-08-13T19:53:43.214Z,14.33
2018-08-13T19:55:47.465Z,17.73
2018-08-13T19:57:51.724Z,15.87
2018-08-13T19:59:56.094Z,17.20
2018-08-13T20:02:00.696Z,18.13
2018-08-13T20:04:05.088Z,16.77
2018-08-13T20:06:09.464Z,16.23
2018-08-13T20:08:13.792Z,15.97
2018-08-13T20:10:18.174Z,16.27
2018-08-13T20:12:22.503Z,15.87
2018-08-13T20:14:26.885Z,17.27
2018-08-13T20:16:31.101Z,16.80
2018-08-13T20:18:35.437Z,16.13
2018-08-13T20:20:39.636Z,14.73
2018-08-13T20:22:44.861Z,15.03
2018-08-13T20:24:49.165Z,13.13
2018-08-13T20:26:53.846Z,12.83
2018-08-13T20:28:58.112Z,10.30
2018-08-13T20:31:02.391Z,10.30
2018-08-13T20:33:06.687Z,8.60
2018-08-13T20:35:10.894Z,8.63
2018-08-13T20:37:15.124Z,7.90
2018-08-13T20:39:19.374Z,7.63
2018-08-13T20:41:23.580Z,7.47
2018-08-13T20:43:27.891Z,6.87
2018-08-13T20:45:32.142Z,6.30
2018-08-13T20:47:36.410Z,7.23
2018-08-13T20:49:40.716Z,6.53
2018-08-13T20:51:44.942Z,7.67
2018-08-13T20:53:49.554Z,5.70
2018-08-13T20:55:53.851Z,8.23
2018-08-13T20:57:59.165Z,6.20
2018-08-13T21:00:04.165Z,6.53
2018-08-13T21:02:09.069Z,7.60
2018-08-13T21:04:15.450Z,7.47
2018-08-13T21:06:21.382Z,7.70
2018-08-13T21:08:26.025Z,6.87
2018-08-13T21:10:31.053Z,7.53
2018-08-13T21:12:36.016Z,8.63
2018-08-13T21:14:40.450Z,7.87
2018-08-13T21:16:44.850Z,8.77
2018-08-13T21:18:49.818Z,7.87
2018-08-13T21:20:54.430Z,8.97
2018-08-13T21:22:59.596Z,8.73
2018-08-13T21:25:03.906Z,8.80
2018-08-13T21:27:09.019Z,9.03
2018-08-13T21:29:13.588Z,9.13
2018-08-13T21:31:18.283Z,7.50
2018-08-13T21:33:23.251Z,9.93
2018-08-13T21:35:27.514Z,8.90
2018-08-13T21:37:31.856Z,8.87
2018-08-13T21:39:36.112Z,7.53
2018-08-13T21:41:40.867Z,7.87
2018-08-13T21:43:45.166Z,7.77
2018-08-13T21:45:49.409Z,9.07
2018-08-13T21:47:53.658Z,7.80
2018-08-13T21:49:58.209Z,9.73
2018-08-13T21:52:02.550Z,8.37
2018-08-13T21:54:07.618Z,7.47
2018-08-13T21:56:12.272Z,8.10
2018-08-13T21:58:17.585Z,7.90
2018-08-13T22:00:28.481Z,9.33
2018-08-13T22:02:32.770Z,8.70
2018-08-13T22:04:37.001Z,9.43
2018-08-13T22:06:41.309Z,11.60
2018-08-13T22:08:45.534Z,11.27
2018-08-13T22:10:49.813Z,12.50
2018-08-13T22:12:54.219Z,11.57
2018-08-13T22:14:58.505Z,10.00
2018-08-13T22:17:02.731Z,12.87
2018-08-13T22:19:07.840Z,12.77
2018-08-13T22:21:12.158Z,14.07
2018-08-13T22:23:16.456Z,13.90
2018-08-13T22:25:22.867Z,14.47
2018-08-13T22:27:27.106Z,10.13
2018-08-13T22:29:31.377Z,16.20
2018-08-13T22:31:35.758Z,14.53
2018-08-13T22:33:40.020Z,13.83
2018-08-13T22:35:44.313Z,15.23
2018-08-13T22:37:48.668Z,11.53
2018-08-13T22:39:52.879Z,15.00
2018-08-13T22:41:57.236Z,14.80
2018-08-13T22:44:01.433Z,14.57
2018-08-13T22:46:05.803Z,14.83
2018-08-13T22:48:10.182Z,15.07
2018-08-13T22:50:14.574Z,11.50
2018-08-13T22:52:18.846Z,11.17
2018-08-13T22:54:23.046Z,16.13
2018-08-13T22:56:27.375Z,15.30
2018-08-13T22:58:31.704Z,16.90
2018-08-13T23:00:36.003Z,12.70
2018-08-13T23:02:40.442Z,16.10
2018-08-13T23:04:44.693Z,13.33
2018-08-13T23:06:48.899Z,18.73
2018-08-13T23:08:53.119Z,16.87
2018-08-13T23:10:57.231Z,15.20
2018-08-13T23:13:01.542Z,17.33
2018-08-13T23:15:11.493Z,16.50
2018-08-13T23:17:15.767Z,19.47
2018-08-13T23:19:20.022Z,21.73
2018-08-13T23:21:24.405Z,17.87
2018-08-13T23:23:28.739Z,15.57
2018-08-13T23:25:34.624Z,17.33
2018-08-13T23:27:38.846Z,20.17
2018-08-13T23:29:43.132Z,20.73
2018-08-13T23:31:47.378Z,17.57
2018-08-13T23:33:51.671Z,19.27
2018-08-13T23:35:55.906Z,18.23
2018-08-13T23:38:00.093Z,16.33
2018-08-13T23:40:04.460Z,20.03
2018-08-13T23:42:08.831Z,20.37
2018-08-13T23:44:13.080Z,17.10
2018-08-13T23:46:17.288Z,15.10
2018-08-13T23:48:21.551Z,17.67
2018-08-13T23:50:26.745Z,17.73
2018-08-13T23:52:31.064Z,19.00
2018-08-13T23:54:35.323Z,18.30
2018-08-13T23:56:39.529Z,17.97
2018-08-13T23:58:43.817Z,15.77
